METAR Data

Data at: 0845 UTC 17 Nov 2018

METAR for:KEWR (Newark Intl, NJ, US)
Text:KEWR 170751Z 23010KT 10SM OVC040 03/M01 A3004 RMK AO2 SLP170 T00281006
Temperature: 2.8°C ( 37°F)
Dewpoint: -0.6°C ( 31°F) [RH = 78%]
Pressure (altimeter):30.04 inches Hg (1017.4 mb) [Sea level pressure: 1017.0 mb]
Winds:from the SW (230 degrees) at 12 MPH (10 knots; 5.1 m/s)
Visibility:10 or more sm (16+ km)
Ceiling:4000 feet AGL
Clouds: overcast cloud deck at 4000 feet AGL